createdAt,value
2018-09-23T00:00:21.241Z,2.10
2018-09-23T00:02:49.234Z,2.10
2018-09-23T00:05:17.274Z,1.33
2018-09-23T00:07:45.273Z,2.37
2018-09-23T00:10:13.515Z,1.43
2018-09-23T00:12:41.575Z,2.83
2018-09-23T00:15:09.582Z,1.90
2018-09-23T00:17:37.682Z,2.43
2018-09-23T00:20:06.163Z,1.83
2018-09-23T00:22:34.162Z,1.73
2018-09-23T00:25:02.373Z,2.60
2018-09-23T00:27:30.413Z,2.23
2018-09-23T00:29:58.497Z,2.50
2018-09-23T00:32:26.596Z,1.97
2018-09-23T00:34:54.670Z,3.17
2018-09-23T00:37:23.366Z,2.27
2018-09-23T00:39:51.742Z,2.60
2018-09-23T00:42:19.869Z,2.30
2018-09-23T00:44:47.914Z,2.10
2018-09-23T00:47:16.326Z,2.33
2018-09-23T00:49:44.337Z,2.40
2018-09-23T00:52:12.384Z,2.43
2018-09-23T00:54:40.422Z,2.50
2018-09-23T00:57:08.650Z,3.67
2018-09-23T00:59:36.724Z,2.80
2018-09-23T01:02:04.729Z,2.87
2018-09-23T01:04:32.774Z,3.10
2018-09-23T01:07:00.894Z,3.57
2018-09-23T01:09:28.982Z,3.63
2018-09-23T01:11:57.069Z,3.13
2018-09-23T01:14:25.108Z,2.70
2018-09-23T01:16:53.129Z,2.90
2018-09-23T01:19:21.173Z,2.97
2018-09-23T01:21:49.386Z,2.93
2018-09-23T01:24:17.498Z,2.93
2018-09-23T01:26:45.566Z,3.20
2018-09-23T01:29:14.112Z,3.43
2018-09-23T01:31:42.142Z,2.90
2018-09-23T01:34:10.420Z,3.03
2018-09-23T01:36:38.469Z,3.47
2018-09-23T01:39:07.321Z,2.73
2018-09-23T01:41:35.508Z,3.40
2018-09-23T01:44:03.713Z,2.50
2018-09-23T01:46:31.769Z,2.87
2018-09-23T01:48:59.860Z,3.00
2018-09-23T01:51:27.934Z,2.60
2018-09-23T01:53:55.933Z,3.20
2018-09-23T01:56:24.023Z,2.10
2018-09-23T01:58:52.095Z,2.27
2018-09-23T02:01:20.094Z,2.20
2018-09-23T02:03:48.361Z,2.03
2018-09-23T02:06:16.446Z,2.50
2018-09-23T02:08:44.497Z,2.20
2018-09-23T02:11:12.581Z,2.30
2018-09-23T02:13:40.592Z,2.60
2018-09-23T02:16:08.890Z,2.27
2018-09-23T02:18:36.897Z,2.77
2018-09-23T02:21:04.959Z,2.63
2018-09-23T02:23:33.144Z,2.83
2018-09-23T02:26:01.213Z,2.67
2018-09-23T02:28:29.227Z,3.10
2018-09-23T02:30:57.266Z,2.63
2018-09-23T02:33:25.353Z,2.77
2018-09-23T02:35:53.922Z,2.60
2018-09-23T02:38:21.926Z,5.20
2018-09-23T02:40:49.934Z,3.30
2018-09-23T02:43:17.980Z,2.73
2018-09-23T02:45:46.031Z,2.70
2018-09-23T02:48:14.075Z,3.00
2018-09-23T02:50:42.093Z,3.00
2018-09-23T02:53:10.150Z,3.07
2018-09-23T02:55:38.165Z,3.53
2018-09-23T02:58:06.177Z,3.27
2018-09-23T03:00:34.298Z,3.50
2018-09-23T03:03:02.365Z,2.90
2018-09-23T03:05:30.570Z,3.90
2018-09-23T03:07:58.593Z,3.77
2018-09-23T03:10:26.617Z,3.47
2018-09-23T03:12:54.651Z,3.40
2018-09-23T03:15:22.666Z,2.53
2018-09-23T03:17:50.821Z,3.20
2018-09-23T03:20:19.080Z,4.10
2018-09-23T03:22:47.077Z,3.57
2018-09-23T03:25:15.150Z,3.43
2018-09-23T03:27:43.221Z,3.90
2018-09-23T03:30:11.314Z,4.40
2018-09-23T03:32:39.353Z,5.00
2018-09-23T03:35:07.357Z,3.67
2018-09-23T03:37:35.403Z,3.67
2018-09-23T03:40:03.414Z,4.00
2018-09-23T03:42:31.640Z,3.97
2018-09-23T03:44:59.649Z,3.37
2018-09-23T03:47:27.650Z,3.83
2018-09-23T03:49:55.695Z,4.10
2018-09-23T03:52:23.708Z,3.00
2018-09-23T03:54:51.746Z,3.70
2018-09-23T03:57:19.744Z,2.80
2018-09-23T03:59:47.792Z,3.00
2018-09-23T04:02:15.865Z,3.43
2018-09-23T04:04:43.946Z,3.23
2018-09-23T04:07:12.067Z,2.30
2018-09-23T04:09:40.113Z,3.50
2018-09-23T04:12:08.164Z,3.57
2018-09-23T04:14:36.127Z,2.83
2018-09-23T04:17:04.197Z,3.50
2018-09-23T04:19:32.181Z,4.10
2018-09-23T04:22:00.222Z,3.00
2018-09-23T04:24:28.369Z,3.63
2018-09-23T04:26:56.391Z,4.40
2018-09-23T04:29:24.441Z,3.80
2018-09-23T04:31:52.444Z,4.43
2018-09-23T04:34:20.492Z,4.93
2018-09-23T04:36:48.522Z,3.40
2018-09-23T04:39:16.553Z,4.30
2018-09-23T04:41:44.556Z,4.00
2018-09-23T04:44:12.600Z,4.50
2018-09-23T04:46:40.689Z,4.77
2018-09-23T04:49:08.702Z,3.93
2018-09-23T04:51:36.743Z,4.20
2018-09-23T04:54:04.747Z,4.43
2018-09-23T04:56:32.839Z,3.40
2018-09-23T04:59:00.919Z,4.20
2018-09-23T05:01:29.095Z,3.50
2018-09-23T05:03:57.147Z,4.50
2018-09-23T05:06:25.166Z,4.00
2018-09-23T05:08:53.222Z,3.93
2018-09-23T05:11:21.230Z,4.43
2018-09-23T05:13:49.221Z,4.43
2018-09-23T05:16:18.251Z,4.20
2018-09-23T05:18:46.309Z,4.33
2018-09-23T05:21:14.379Z,4.60
2018-09-23T05:23:42.438Z,5.20
2018-09-23T05:26:10.473Z,5.10
2018-09-23T05:28:38.522Z,5.13
2018-09-23T05:31:06.637Z,4.83
2018-09-23T05:33:34.833Z,4.20
2018-09-23T05:36:02.993Z,5.30
2018-09-23T05:38:31.038Z,6.10
2018-09-23T05:40:59.162Z,5.23
2018-09-23T05:43:27.199Z,5.50
2018-09-23T05:45:55.205Z,5.50
2018-09-23T05:48:23.516Z,5.57
2018-09-23T05:50:51.525Z,5.00
2018-09-23T05:53:19.577Z,5.30
2018-09-23T05:55:47.837Z,4.73
2018-09-23T05:58:15.949Z,5.50
2018-09-23T06:00:46.393Z,5.43
2018-09-23T06:03:14.534Z,5.70
2018-09-23T06:05:42.486Z,5.67
2018-09-23T06:08:10.642Z,5.30
2018-09-23T06:10:38.646Z,4.80
2018-09-23T06:13:06.709Z,4.70
2018-09-23T06:15:34.766Z,4.73
2018-09-23T06:18:02.784Z,6.43
2018-09-23T06:20:30.856Z,5.00
2018-09-23T06:22:58.865Z,4.80
2018-09-23T06:25:26.934Z,4.83
2018-09-23T06:27:55.013Z,4.50
2018-09-23T06:30:23.005Z,5.17
2018-09-23T06:32:51.068Z,5.50
2018-09-23T06:35:19.191Z,5.00
2018-09-23T06:37:47.244Z,6.00
2018-09-23T06:40:15.334Z,4.73
2018-09-23T06:42:43.422Z,5.37
2018-09-23T06:45:11.747Z,5.10
2018-09-23T06:47:41.071Z,3.80
2018-09-23T06:50:09.090Z,4.93
2018-09-23T06:52:37.205Z,4.17
2018-09-23T06:55:05.370Z,6.90
2018-09-23T06:57:33.662Z,4.57
2018-09-23T07:00:01.697Z,5.10
2018-09-23T07:02:30.143Z,5.30
2018-09-23T07:04:58.230Z,4.20
2018-09-23T07:07:26.197Z,4.73
2018-09-23T07:09:54.305Z,5.03
2018-09-23T07:12:22.305Z,5.20
2018-09-23T07:14:50.305Z,4.17
2018-09-23T07:17:18.398Z,5.10
2018-09-23T07:19:46.417Z,5.30
2018-09-23T07:22:14.666Z,3.80
2018-09-23T07:24:42.762Z,4.33
2018-09-23T07:27:10.781Z,5.53
2018-09-23T07:29:38.818Z,5.03
2018-09-23T07:32:06.837Z,4.47
2018-09-23T07:34:34.921Z,4.77
2018-09-23T07:37:03.017Z,5.27
2018-09-23T07:39:31.163Z,5.40
2018-09-23T07:41:59.179Z,4.97
2018-09-23T07:44:27.221Z,4.57
2018-09-23T07:46:55.221Z,5.33
2018-09-23T07:49:23.275Z,5.10
2018-09-23T07:51:51.340Z,5.80
2018-09-23T07:54:20.025Z,5.07
2018-09-23T07:56:48.033Z,4.40
2018-09-23T07:59:16.088Z,4.50
2018-09-23T08:01:44.288Z,4.60
2018-09-23T08:04:12.286Z,3.70
2018-09-23T08:06:40.326Z,4.33
2018-09-23T08:09:09.271Z,4.43
2018-09-23T08:11:37.764Z,4.50
2018-09-23T08:14:06.229Z,5.30
2018-09-23T08:16:40.692Z,4.90
2018-09-23T08:19:09.052Z,4.20
2018-09-23T08:21:37.571Z,4.63
2018-09-23T08:24:08.517Z,3.73
2018-09-23T08:26:36.827Z,3.43
2018-09-23T08:29:05.022Z,3.23
2018-09-23T08:31:33.254Z,2.73
2018-09-23T08:34:01.851Z,2.90
2018-09-23T08:36:29.875Z,2.40
2018-09-23T08:38:58.023Z,2.20
2018-09-23T08:41:26.392Z,2.93
2018-09-23T08:43:54.545Z,2.40
2018-09-23T08:46:22.579Z,3.00
2018-09-23T08:48:50.974Z,2.40
2018-09-23T08:51:19.340Z,1.40
2018-09-23T08:53:47.419Z,1.40
2018-09-23T08:56:15.706Z,3.40
2018-09-23T08:58:43.921Z,1.87
2018-09-23T09:01:12.205Z,1.40
2018-09-23T09:03:40.417Z,1.70
2018-09-23T09:06:09.210Z,1.20
2018-09-23T09:08:37.483Z,1.13
2018-09-23T09:11:05.575Z,1.20
2018-09-23T09:13:34.265Z,1.73
2018-09-23T09:16:02.880Z,1.40
2018-09-23T09:18:31.102Z,1.30
2018-09-23T09:20:59.663Z,1.23
2018-09-23T09:23:27.852Z,1.13
2018-09-23T09:25:56.404Z,1.10
2018-09-23T09:28:24.727Z,1.00
2018-09-23T09:30:52.810Z,0.90
2018-09-23T09:33:20.886Z,1.67
2018-09-23T09:35:49.290Z,0.80
2018-09-23T09:38:17.366Z,1.37
2018-09-23T09:40:45.554Z,0.80
2018-09-23T09:43:13.671Z,0.60
2018-09-23T09:45:41.822Z,0.77
2018-09-23T09:48:09.986Z,0.70
2018-09-23T09:50:38.079Z,0.80
2018-09-23T09:53:06.582Z,0.80
2018-09-23T09:55:34.678Z,0.90
2018-09-23T09:58:02.724Z,0.77
2018-09-23T10:00:34.726Z,1.50
2018-09-23T10:03:04.042Z,0.80
2018-09-23T10:05:32.127Z,1.00
2018-09-23T10:08:00.138Z,0.60
2018-09-23T10:10:28.246Z,0.80
2018-09-23T10:12:56.249Z,0.70
2018-09-23T10:15:24.361Z,0.87
2018-09-23T10:17:52.446Z,0.90
2018-09-23T10:20:20.450Z,0.60
2018-09-23T10:22:48.615Z,0.70
2018-09-23T10:25:16.585Z,0.67
2018-09-23T10:27:44.691Z,0.80
2018-09-23T10:30:13.266Z,1.07
2018-09-23T10:32:41.329Z,0.63
2018-09-23T10:35:09.467Z,0.80
2018-09-23T10:37:37.844Z,0.80
2018-09-23T10:40:05.908Z,0.50
2018-09-23T10:42:33.994Z,0.80
2018-09-23T10:45:02.061Z,0.50
2018-09-23T10:47:30.141Z,0.80
2018-09-23T10:49:58.581Z,0.70
2018-09-23T10:52:26.670Z,1.40
2018-09-23T10:54:54.797Z,0.97
2018-09-23T10:57:22.902Z,0.60
2018-09-23T10:59:51.033Z,0.77
2018-09-23T11:02:19.070Z,0.70
2018-09-23T11:04:47.162Z,0.50
2018-09-23T11:07:15.234Z,0.80
2018-09-23T11:09:43.635Z,0.60
2018-09-23T11:12:11.916Z,0.70
2018-09-23T11:14:39.954Z,0.93
2018-09-23T11:17:08.042Z,0.50
2018-09-23T11:19:40.238Z,0.70
2018-09-23T11:22:08.470Z,0.70
2018-09-23T11:24:36.664Z,0.70
2018-09-23T11:27:04.842Z,0.70
2018-09-23T11:29:32.910Z,1.07
2018-09-23T11:32:01.319Z,0.60
2018-09-23T11:34:29.346Z,0.70
2018-09-23T11:36:57.389Z,0.70
2018-09-23T11:39:25.482Z,0.63
2018-09-23T11:41:53.554Z,0.50
2018-09-23T11:44:21.601Z,0.67
2018-09-23T11:46:49.923Z,1.73
2018-09-23T11:49:18.218Z,0.60
2018-09-23T11:51:46.382Z,0.70
2018-09-23T11:54:14.474Z,0.57
2018-09-23T11:56:42.535Z,0.60
2018-09-23T11:59:10.658Z,0.67
2018-09-23T12:01:38.725Z,0.80
2018-09-23T12:04:06.802Z,0.70
2018-09-23T12:06:34.917Z,0.73
2018-09-23T12:09:02.966Z,0.83
2018-09-23T12:11:31.059Z,0.80
2018-09-23T12:13:59.106Z,0.60
2018-09-23T12:16:27.226Z,0.80
2018-09-23T12:18:55.238Z,0.70
2018-09-23T12:21:23.266Z,0.67
2018-09-23T12:23:51.715Z,0.73
2018-09-23T12:26:19.722Z,1.10
2018-09-23T12:28:47.738Z,0.80
2018-09-23T12:31:16.002Z,1.00
2018-09-23T12:33:44.134Z,0.70
2018-09-23T12:36:12.233Z,0.97
2018-09-23T12:38:43.230Z,0.90
2018-09-23T12:41:11.674Z,0.80
2018-09-23T12:43:39.762Z,0.90
2018-09-23T12:46:07.854Z,1.33
2018-09-23T12:48:35.875Z,1.33
2018-09-23T12:51:03.946Z,0.80
2018-09-23T12:53:31.994Z,0.77
2018-09-23T12:56:00.081Z,1.03
2018-09-23T12:58:28.084Z,0.90
2018-09-23T13:00:56.365Z,1.00
2018-09-23T13:03:24.438Z,1.10
2018-09-23T13:05:52.491Z,1.50
2018-09-23T13:08:20.601Z,1.23
2018-09-23T13:10:48.594Z,1.10
2018-09-23T13:13:16.654Z,1.20
2018-09-23T13:15:44.757Z,1.20
2018-09-23T13:18:12.854Z,1.23
2018-09-23T13:20:40.821Z,1.50
2018-09-23T13:23:09.149Z,1.63
2018-09-23T13:25:37.153Z,1.43
2018-09-23T13:28:05.382Z,2.50
2018-09-23T13:30:33.445Z,2.03
2018-09-23T13:33:01.450Z,1.50
2018-09-23T13:35:29.538Z,2.00
2018-09-23T13:37:57.563Z,1.70
2018-09-23T13:40:25.590Z,2.40
2018-09-23T13:42:53.760Z,1.77
2018-09-23T13:45:21.757Z,2.73
2018-09-23T13:47:49.830Z,2.30
2018-09-23T13:50:17.886Z,3.77
2018-09-23T13:52:45.987Z,3.50
2018-09-23T13:55:14.064Z,3.10
2018-09-23T13:57:42.118Z,4.20
2018-09-23T14:00:10.264Z,4.53
2018-09-23T14:02:38.365Z,3.83
2018-09-23T14:05:06.382Z,4.10
2018-09-23T14:07:34.419Z,2.77
2018-09-23T14:10:03.532Z,3.03
2018-09-23T14:12:31.610Z,3.70
2018-09-23T14:14:59.790Z,3.93
2018-09-23T14:17:27.845Z,3.00
2018-09-23T14:19:56.982Z,3.60
2018-09-23T14:22:25.134Z,2.90
2018-09-23T14:24:53.182Z,2.77
2018-09-23T14:27:21.234Z,3.40
2018-09-23T14:29:49.289Z,3.00
2018-09-23T14:32:17.369Z,4.10
2018-09-23T14:34:45.489Z,3.67
2018-09-23T14:37:13.555Z,4.27
2018-09-23T14:39:41.616Z,4.83
2018-09-23T14:42:09.883Z,3.70
2018-09-23T14:44:37.818Z,3.60
2018-09-23T14:47:05.887Z,3.77
2018-09-23T14:49:33.927Z,3.33
2018-09-23T14:52:02.195Z,4.40
2018-09-23T14:54:30.302Z,4.20
2018-09-23T14:56:58.354Z,3.40
2018-09-23T14:59:26.534Z,3.90
2018-09-23T15:01:54.982Z,3.80
2018-09-23T15:04:23.294Z,3.50
2018-09-23T15:06:51.348Z,3.30
2018-09-23T15:09:19.465Z,3.53
2018-09-23T15:11:47.476Z,3.17
2018-09-23T15:14:15.886Z,3.53
2018-09-23T15:16:43.942Z,2.87
2018-09-23T15:19:12.038Z,4.17
2018-09-23T15:21:40.155Z,3.07
2018-09-23T15:24:08.177Z,4.83
2018-09-23T15:26:36.286Z,3.80
2018-09-23T15:29:04.330Z,4.73
2018-09-23T15:31:32.454Z,3.50
2018-09-23T15:34:00.588Z,4.30
2018-09-23T15:36:29.025Z,4.30
2018-09-23T15:38:57.110Z,5.47
2018-09-23T15:41:25.182Z,4.63
2018-09-23T15:43:53.273Z,5.97
2018-09-23T15:46:21.387Z,4.33
2018-09-23T15:48:49.545Z,4.27
2018-09-23T15:51:17.633Z,4.57
2018-09-23T15:53:45.694Z,3.77
2018-09-23T15:56:14.106Z,4.87
2018-09-23T15:58:42.202Z,4.80
2018-09-23T16:01:10.277Z,6.17
2018-09-23T16:03:38.314Z,4.10
2018-09-23T16:06:06.358Z,2.60
2018-09-23T16:08:34.432Z,3.20
2018-09-23T16:11:02.541Z,2.80
2018-09-23T16:13:30.599Z,2.97
2018-09-23T16:15:58.679Z,2.23
2018-09-23T16:18:26.810Z,1.97
2018-09-23T16:20:54.899Z,3.17
2018-09-23T16:23:23.947Z,2.00
2018-09-23T16:25:52.028Z,2.17
2018-09-23T16:28:20.125Z,1.10
2018-09-23T16:30:48.416Z,1.93
2018-09-23T16:33:16.437Z,2.10
2018-09-23T16:35:44.481Z,2.43
2018-09-23T16:38:12.530Z,3.30
2018-09-23T16:40:40.614Z,2.77
2018-09-23T16:43:08.659Z,3.00
2018-09-23T16:45:36.718Z,2.30
2018-09-23T16:48:04.798Z,2.30
2018-09-23T16:50:33.085Z,1.33
2018-09-23T16:53:01.103Z,1.43
2018-09-23T16:55:29.153Z,1.90
2018-09-23T16:57:57.339Z,2.30
2018-09-23T17:00:25.500Z,1.90
2018-09-23T17:02:53.479Z,2.00
2018-09-23T17:05:21.557Z,1.60
2018-09-23T17:07:49.646Z,1.10
2018-09-23T17:10:17.653Z,1.23
2018-09-23T17:12:46.054Z,0.97
2018-09-23T17:15:14.062Z,1.53
2018-09-23T17:17:42.071Z,1.10
2018-09-23T17:20:10.110Z,1.57
2018-09-23T17:22:39.165Z,1.57
2018-09-23T17:25:07.285Z,1.43
2018-09-23T17:27:35.294Z,1.20
2018-09-23T17:30:03.480Z,2.00
2018-09-23T17:32:31.589Z,1.30
2018-09-23T17:34:59.671Z,2.17
2018-09-23T17:37:27.714Z,1.60
2018-09-23T17:39:55.707Z,1.10
2018-09-23T17:42:23.765Z,1.10
2018-09-23T17:44:51.837Z,2.63
2018-09-23T17:47:19.962Z,2.23
2018-09-23T17:49:48.005Z,1.60
2018-09-23T17:52:16.222Z,1.50
2018-09-23T17:54:44.254Z,2.00
2018-09-23T17:57:12.382Z,2.10
2018-09-23T17:59:40.490Z,1.57
2018-09-23T18:02:08.662Z,1.60
2018-09-23T18:04:36.718Z,1.87
2018-09-23T18:07:04.921Z,1.70
2018-09-23T18:09:33.281Z,1.47
2018-09-23T18:12:01.362Z,1.40
2018-09-23T18:14:29.408Z,1.47
2018-09-23T18:16:57.465Z,1.20
2018-09-23T18:19:25.554Z,2.23
2018-09-23T18:21:53.641Z,1.73
2018-09-23T18:24:21.697Z,2.13
2018-09-23T18:26:50.262Z,1.87
2018-09-23T18:29:18.282Z,1.53
2018-09-23T18:31:46.277Z,1.43
2018-09-23T18:34:14.466Z,1.90
2018-09-23T18:36:42.525Z,1.90
2018-09-23T18:39:10.892Z,1.53
2018-09-23T18:41:39.138Z,1.90
2018-09-23T18:44:07.305Z,2.17
2018-09-23T18:46:35.302Z,1.80
2018-09-23T18:49:03.343Z,2.27
2018-09-23T18:51:32.358Z,2.27
2018-09-23T18:54:06.001Z,2.60
2018-09-23T18:56:34.086Z,2.60
2018-09-23T18:59:02.125Z,2.63
2018-09-23T19:01:30.367Z,2.23
2018-09-23T19:03:58.452Z,1.90
2018-09-23T19:06:26.632Z,2.20
2018-09-23T19:08:54.638Z,2.40
2018-09-23T19:11:22.794Z,2.00
2018-09-23T19:13:52.522Z,2.20
2018-09-23T19:16:25.985Z,2.03
2018-09-23T19:18:55.025Z,1.47
2018-09-23T19:21:23.326Z,1.80
2018-09-23T19:23:51.433Z,2.30
2018-09-23T19:26:19.475Z,1.83
2018-09-23T19:28:47.681Z,1.70
2018-09-23T19:31:15.857Z,2.10
2018-09-23T19:33:43.955Z,2.50
2018-09-23T19:36:12.033Z,1.90
2018-09-23T19:38:40.064Z,1.73
2018-09-23T19:41:08.342Z,2.07
2018-09-23T19:43:36.391Z,2.07
2018-09-23T19:46:04.825Z,1.57
2018-09-23T19:48:33.057Z,1.93
2018-09-23T19:51:01.150Z,2.23
2018-09-23T19:53:29.479Z,2.20
2018-09-23T19:55:57.542Z,2.50
2018-09-23T19:58:25.649Z,2.20
2018-09-23T20:00:54.002Z,2.33
2018-09-23T20:03:22.110Z,1.80
2018-09-23T20:05:50.138Z,1.87
2018-09-23T20:08:18.187Z,1.70
2018-09-23T20:10:46.341Z,1.40
2018-09-23T20:13:14.361Z,2.03
2018-09-23T20:15:42.841Z,1.40
2018-09-23T20:18:10.902Z,2.27
2018-09-23T20:20:38.985Z,1.30
2018-09-23T20:23:06.994Z,2.20
2018-09-23T20:25:34.994Z,1.70
2018-09-23T20:28:03.042Z,1.67
2018-09-23T20:30:31.042Z,3.10
2018-09-23T20:32:59.309Z,2.53
2018-09-23T20:35:27.314Z,1.70
2018-09-23T20:37:55.336Z,2.07
2018-09-23T20:40:23.478Z,1.50
2018-09-23T20:42:51.490Z,1.57
2018-09-23T20:45:19.621Z,1.50
2018-09-23T20:47:47.662Z,1.50
2018-09-23T20:50:15.792Z,1.27
2018-09-23T20:52:43.905Z,2.03
2018-09-23T20:55:12.202Z,1.63
2018-09-23T20:57:40.252Z,1.93
2018-09-23T21:00:08.329Z,1.77
2018-09-23T21:02:36.713Z,1.53
2018-09-23T21:05:04.897Z,1.40
2018-09-23T21:07:32.893Z,1.70
2018-09-23T21:10:01.596Z,1.40
2018-09-23T21:12:29.669Z,1.53
2018-09-23T21:14:57.662Z,1.70
2018-09-23T21:17:25.702Z,1.70
2018-09-23T21:19:53.715Z,1.50
2018-09-23T21:22:21.725Z,1.50
2018-09-23T21:24:49.789Z,1.33
2018-09-23T21:27:17.869Z,1.70
2018-09-23T21:29:45.930Z,1.40
2018-09-23T21:32:14.037Z,1.20
2018-09-23T21:34:42.046Z,1.40
2018-09-23T21:37:10.045Z,1.87
2018-09-23T21:39:38.190Z,1.60
2018-09-23T21:42:06.383Z,1.40
2018-09-23T21:44:34.462Z,1.70
2018-09-23T21:47:02.465Z,2.30
2018-09-23T21:49:30.515Z,1.80
2018-09-23T21:51:58.529Z,2.17
2018-09-23T21:54:26.521Z,1.60
2018-09-23T21:56:54.566Z,2.60
2018-09-23T21:59:22.557Z,2.00
2018-09-23T22:01:50.597Z,2.70
2018-09-23T22:04:18.681Z,2.67
2018-09-23T22:06:46.810Z,1.97
2018-09-23T22:09:14.806Z,1.87
2018-09-23T22:11:43.024Z,2.97
2018-09-23T22:14:11.026Z,2.23
2018-09-23T22:16:39.144Z,2.00
2018-09-23T22:19:07.191Z,1.73
2018-09-23T22:21:35.486Z,1.43
2018-09-23T22:24:03.498Z,1.70
2018-09-23T22:26:31.587Z,1.33
2018-09-23T22:28:59.615Z,1.50
2018-09-23T22:31:27.613Z,1.83
2018-09-23T22:33:55.666Z,1.57
2018-09-23T22:36:23.709Z,1.50
2018-09-23T22:38:51.758Z,1.40
2018-09-23T22:41:19.885Z,1.17
2018-09-23T22:43:47.886Z,1.00
2018-09-23T22:46:16.049Z,0.93
2018-09-23T22:48:44.050Z,1.10
2018-09-23T22:51:12.041Z,1.00
2018-09-23T22:53:40.090Z,1.10
2018-09-23T22:56:08.090Z,1.53
2018-09-23T22:58:36.135Z,0.83
2018-09-23T23:01:05.281Z,0.70
2018-09-23T23:03:33.666Z,0.83
2018-09-23T23:06:01.661Z,1.70
2018-09-23T23:08:29.690Z,0.90
2018-09-23T23:10:57.772Z,0.70
2018-09-23T23:13:25.779Z,0.90
2018-09-23T23:15:53.769Z,0.73
2018-09-23T23:18:21.980Z,1.00
2018-09-23T23:20:50.020Z,0.87
2018-09-23T23:23:18.043Z,0.90
2018-09-23T23:25:46.093Z,0.90
2018-09-23T23:28:14.089Z,0.97
2018-09-23T23:30:42.105Z,1.00
2018-09-23T23:33:10.193Z,0.83
2018-09-23T23:35:38.229Z,1.30
2018-09-23T23:38:06.226Z,2.03
2018-09-23T23:40:34.290Z,2.70
2018-09-23T23:43:02.338Z,1.43
2018-09-23T23:45:30.393Z,1.80
2018-09-23T23:47:58.443Z,2.30
2018-09-23T23:50:26.457Z,1.80
2018-09-23T23:52:54.506Z,2.10
2018-09-23T23:55:22.717Z,2.17
2018-09-23T23:57:50.745Z,1.80
